This is the latest recevied weather packets stored in our database for station/object GW1477. If no packets are shown the sender has not sent any weather packets the latest 10 day(s).
| Time | Temp. | Humidity | Pressure | Rain* | Wind** | Luminosity | Snow |
|---|---|---|---|---|---|---|---|
| 1777791984 | 0° C | 78% | - | 0 mm | - | - | - |
| 1777789092 | 1.67° C | 75% | - | 0 mm | - | - | - |
| 1777786957 | 2.22° C | 75% | - | 0 mm | - | - | - |
| 1777786583 | 2.22° C | 74% | - | 0 mm | - | - | - |
| 1777786251 | 2.22° C | 74% | - | 0 mm | - | - | - |
| 1777785535 | 2.22° C | 74% | - | 0 mm | - | - | - |
| 1777783725 | 2.78° C | 74% | - | 0 mm | - | - | - |
| 1777783362 | 2.78° C | 74% | - | 0 mm | - | - | - |
| 1777782283 | 2.78° C | 75% | - | 0 mm | - | - | - |
| 1777781903 | 2.78° C | 74% | - | 0 mm | - | - | - |
| 1777781183 | 2.78° C | 75% | - | 0 mm | - | - | - |
| 1777780492 | 2.78° C | 74% | - | 0 mm | - | - | - |
| 1777779736 | 3.33° C | 73% | - | 0 mm | - | - | - |
| 1777777224 | 3.33° C | 69% | - | 0 mm | - | - | - |
| 1777775778 | 3.89° C | 67% | - | 0 mm | - | - | - |
| 1777771814 | 3.33° C | 67% | - | 0 mm | - | - | - |
| 1777769324 | 4.44° C | 64% | - | 0 mm | - | - | - |
| 1777767495 | 5.56° C | 59% | - | 0 mm | - | - | - |
| 1777765721 | 6.11° C | 54% | - | 0 mm | - | - | - |
| 1777763532 | 6.67° C | 51% | - | 0 mm | - | - | - |
| 1777758852 | 7.22° C | 48% | - | 0 mm | - | - | - |
| 1777755634 | 7.78° C | 47% | - | 0 mm | - | - | - |
| 1777751654 | 7.78° C | 49% | - | 0 mm | - | - | - |
| 1777750969 | 7.78° C | 49% | - | 0 mm | - | - | - |
| 1777746280 | 8.89° C | 48% | - | 0 mm | - | - | - |
* Rain since midnight (hover to see other rain measurements)
** Current wind speed in m/s (hover to see current wind gust speed)